createdAt,value
2017-08-09T00:00:10.362Z,0
2017-08-09T00:01:10.515Z,0
2017-08-09T00:02:10.224Z,0
2017-08-09T00:03:10.220Z,0
2017-08-09T00:04:10.526Z,0
2017-08-09T00:05:11.380Z,0
2017-08-09T00:06:10.229Z,0
2017-08-09T00:07:10.244Z,0
2017-08-09T00:08:09.953Z,0
2017-08-09T00:09:10.233Z,0
2017-08-09T00:10:10.910Z,0
2017-08-09T00:11:10.246Z,0
2017-08-09T00:12:10.536Z,0
2017-08-09T00:13:10.245Z,0
2017-08-09T00:14:10.041Z,0
2017-08-09T00:15:11.028Z,0
2017-08-09T00:16:10.249Z,0
2017-08-09T00:17:10.551Z,0
2017-08-09T00:18:10.557Z,0
2017-08-09T00:19:09.958Z,0
2017-08-09T00:20:11.379Z,0
2017-08-09T00:21:10.564Z,0
2017-08-09T00:22:10.261Z,0
2017-08-09T00:23:10.565Z,0
2017-08-09T00:24:10.571Z,0
2017-08-09T00:25:10.716Z,0
2017-08-09T00:26:10.266Z,0
2017-08-09T00:27:10.568Z,0
2017-08-09T00:28:10.577Z,0
2017-08-09T00:29:12.387Z,0
2017-08-09T00:30:10.595Z,0
2017-08-09T00:31:10.581Z,0
2017-08-09T00:32:10.284Z,0
2017-08-09T00:33:10.586Z,0
2017-08-09T00:34:10.595Z,0
2017-08-09T00:35:10.894Z,0
2017-08-09T00:36:10.589Z,0
2017-08-09T00:37:10.592Z,0
2017-08-09T00:38:10.593Z,0
2017-08-09T00:39:10.294Z,0
2017-08-09T00:40:11.513Z,0
2017-08-09T00:41:10.609Z,0
2017-08-09T00:42:10.311Z,0
2017-08-09T00:43:10.324Z,0
2017-08-09T00:44:10.671Z,0
2017-08-09T00:45:11.606Z,0
2017-08-09T00:46:10.636Z,0
2017-08-09T00:47:10.616Z,0
2017-08-09T00:48:10.621Z,0
2017-08-09T00:49:10.322Z,0
2017-08-09T00:50:10.720Z,0
2017-08-09T00:51:10.635Z,0
2017-08-09T00:52:10.636Z,0
2017-08-09T00:53:10.027Z,0
2017-08-09T00:54:10.330Z,0
2017-08-09T00:55:11.604Z,0
2017-08-09T00:56:10.629Z,0
2017-08-09T00:57:10.647Z,0
2017-08-09T00:58:10.353Z,0
2017-08-09T00:59:11.502Z,0
2017-08-09T01:00:10.644Z,0
2017-08-09T01:01:10.649Z,0
2017-08-09T01:02:10.663Z,0
2017-08-09T01:03:10.650Z,0
2017-08-09T01:04:10.359Z,0
2017-08-09T01:05:11.229Z,0
2017-08-09T01:06:10.357Z,0
2017-08-09T01:07:10.713Z,0
2017-08-09T01:08:10.373Z,0
2017-08-09T01:09:10.668Z,0
2017-08-09T01:10:10.997Z,0
2017-08-09T01:11:10.670Z,0
2017-08-09T01:12:10.665Z,0
2017-08-09T01:13:10.371Z,0
2017-08-09T01:14:10.673Z,0
2017-08-09T01:15:11.733Z,0
2017-08-09T01:16:10.699Z,0
2017-08-09T01:17:10.686Z,0
2017-08-09T01:18:10.390Z,0
2017-08-09T01:19:10.693Z,0
2017-08-09T01:20:11.250Z,0
2017-08-09T01:21:10.692Z,0
2017-08-09T01:22:10.691Z,0
2017-08-09T01:23:10.390Z,0
2017-08-09T01:24:10.384Z,0
2017-08-09T01:25:11.709Z,0
2017-08-09T01:26:10.400Z,0
2017-08-09T01:27:10.405Z,0
2017-08-09T01:28:10.727Z,0
2017-08-09T01:29:10.701Z,0
2017-08-09T01:30:11.429Z,0
2017-08-09T01:31:10.408Z,0
2017-08-09T01:32:10.704Z,0
2017-08-09T01:33:10.104Z,0
2017-08-09T01:34:10.710Z,0
2017-08-09T01:35:11.212Z,0
2017-08-09T01:36:10.713Z,0
2017-08-09T01:37:10.735Z,0
2017-08-09T01:38:10.127Z,0
2017-08-09T01:39:10.738Z,0
2017-08-09T01:40:11.490Z,0
2017-08-09T01:41:10.426Z,0
2017-08-09T01:42:10.734Z,0
2017-08-09T01:43:10.735Z,0
2017-08-09T01:44:10.135Z,0
2017-08-09T01:45:10.940Z,0
2017-08-09T01:46:10.746Z,0
2017-08-09T01:47:10.746Z,0
2017-08-09T01:48:10.744Z,0
2017-08-09T01:49:10.746Z,0
2017-08-09T01:50:11.816Z,0
2017-08-09T01:51:10.754Z,0
2017-08-09T01:52:10.749Z,0
2017-08-09T01:53:10.753Z,0
2017-08-09T01:54:10.754Z,0
2017-08-09T01:55:11.746Z,0
2017-08-09T01:56:10.490Z,0
2017-08-09T01:57:10.763Z,0
2017-08-09T01:58:10.773Z,0
2017-08-09T01:59:10.770Z,0
2017-08-09T02:00:12.069Z,0
2017-08-09T02:01:10.470Z,0
2017-08-09T02:02:10.773Z,0
2017-08-09T02:03:10.780Z,0
2017-08-09T02:04:10.169Z,0
2017-08-09T02:05:11.268Z,0
2017-08-09T02:06:10.479Z,0
2017-08-09T02:07:10.785Z,0
2017-08-09T02:08:10.783Z,0
2017-08-09T02:09:10.185Z,0
2017-08-09T02:10:11.783Z,0
2017-08-09T02:11:10.790Z,0
2017-08-09T02:12:10.785Z,0
2017-08-09T02:13:10.803Z,0
2017-08-09T02:14:10.792Z,0
2017-08-09T02:15:11.279Z,0
2017-08-09T02:16:10.794Z,0
2017-08-09T02:17:10.497Z,0
2017-08-09T02:18:10.502Z,0
2017-08-09T02:19:10.810Z,0
2017-08-09T02:20:11.743Z,0
2017-08-09T02:21:10.807Z,0
2017-08-09T02:22:10.506Z,0
2017-08-09T02:23:10.509Z,0
2017-08-09T02:24:10.814Z,0
2017-08-09T02:25:11.216Z,0
2017-08-09T02:26:10.896Z,0
2017-08-09T02:27:10.814Z,0
2017-08-09T02:28:10.848Z,0
2017-08-09T02:29:10.819Z,0
2017-08-09T02:30:11.035Z,0
2017-08-09T02:31:10.834Z,0
2017-08-09T02:32:10.823Z,0
2017-08-09T02:33:10.831Z,0
2017-08-09T02:34:10.846Z,0
2017-08-09T02:35:10.966Z,0
2017-08-09T02:36:10.839Z,0
2017-08-09T02:37:10.532Z,0
2017-08-09T02:38:10.829Z,0
2017-08-09T02:39:10.837Z,0
2017-08-09T02:40:11.902Z,0
2017-08-09T02:41:10.868Z,0
2017-08-09T02:42:10.838Z,0
2017-08-09T02:43:10.847Z,0
2017-08-09T02:44:10.845Z,0
2017-08-09T02:45:11.388Z,0
2017-08-09T02:46:10.842Z,0
2017-08-09T02:47:10.855Z,0
2017-08-09T02:48:10.864Z,0
2017-08-09T02:49:10.549Z,0
2017-08-09T02:50:11.350Z,0
2017-08-09T02:51:10.550Z,0
2017-08-09T02:52:10.557Z,0
2017-08-09T02:53:10.551Z,0
2017-08-09T02:54:10.860Z,0
2017-08-09T02:55:11.335Z,0
2017-08-09T02:56:10.865Z,0
2017-08-09T02:57:10.858Z,0
2017-08-09T02:58:10.918Z,0
2017-08-09T02:59:10.276Z,0
2017-08-09T03:00:12.448Z,0
2017-08-09T03:01:10.887Z,0
2017-08-09T03:02:10.871Z,0
2017-08-09T03:03:10.566Z,0
2017-08-09T03:04:10.965Z,0
2017-08-09T03:05:11.040Z,0
2017-08-09T03:06:10.641Z,0
2017-08-09T03:07:10.290Z,0
2017-08-09T03:08:10.878Z,0
2017-08-09T03:09:10.884Z,0
2017-08-09T03:10:11.491Z,0
2017-08-09T03:11:10.879Z,0
2017-08-09T03:12:10.907Z,0
2017-08-09T03:13:10.887Z,0
2017-08-09T03:14:10.886Z,0
2017-08-09T03:15:11.273Z,0
2017-08-09T03:16:10.894Z,0
2017-08-09T03:17:10.595Z,0
2017-08-09T03:18:10.892Z,0
2017-08-09T03:19:10.893Z,0
2017-08-09T03:20:11.398Z,0
2017-08-09T03:21:10.596Z,0
2017-08-09T03:22:10.898Z,0
2017-08-09T03:23:10.908Z,0
2017-08-09T03:24:10.901Z,0
2017-08-09T03:25:12.089Z,0
2017-08-09T03:26:10.303Z,0
2017-08-09T03:27:10.908Z,0
2017-08-09T03:28:10.628Z,0
2017-08-09T03:29:10.920Z,0
2017-08-09T03:30:11.410Z,0
2017-08-09T03:31:10.920Z,0
2017-08-09T03:32:10.610Z,0
2017-08-09T03:33:10.914Z,4
2017-08-09T03:34:10.917Z,4
2017-08-09T03:35:11.870Z,4
2017-08-09T03:36:10.916Z,4
2017-08-09T03:37:10.920Z,0
2017-08-09T03:38:10.623Z,4
2017-08-09T03:39:10.927Z,4
2017-08-09T03:40:11.684Z,4
2017-08-09T03:41:10.933Z,4
2017-08-09T03:42:10.927Z,8
2017-08-09T03:43:10.935Z,4
2017-08-09T03:44:10.974Z,8
2017-08-09T03:45:13.961Z,8
2017-08-09T03:46:10.632Z,8
2017-08-09T03:47:10.934Z,16
2017-08-09T03:48:10.635Z,16
2017-08-09T03:49:10.941Z,20
2017-08-09T03:50:12.222Z,20
2017-08-09T03:51:10.944Z,24
2017-08-09T03:52:10.952Z,28
2017-08-09T03:53:10.944Z,32
2017-08-09T03:54:10.946Z,36
2017-08-09T03:55:12.242Z,40
2017-08-09T03:56:10.954Z,48
2017-08-09T03:57:10.957Z,52
2017-08-09T03:58:10.352Z,60
2017-08-09T03:59:10.949Z,68
2017-08-09T04:00:14.170Z,76
2017-08-09T04:01:10.972Z,84
2017-08-09T04:02:10.956Z,96
2017-08-09T04:03:10.960Z,104
2017-08-09T04:04:10.657Z,112
2017-08-09T04:05:12.355Z,128
2017-08-09T04:06:10.961Z,136
2017-08-09T04:07:10.966Z,144
2017-08-09T04:08:10.974Z,160
2017-08-09T04:09:10.970Z,168
2017-08-09T04:10:14.773Z,180
2017-08-09T04:11:10.667Z,192
2017-08-09T04:12:10.976Z,204
2017-08-09T04:13:10.970Z,220
2017-08-09T04:14:10.983Z,236
2017-08-09T04:15:11.356Z,252
2017-08-09T04:16:10.978Z,268
2017-08-09T04:17:10.977Z,292
2017-08-09T04:18:10.684Z,308
2017-08-09T04:19:10.982Z,328
2017-08-09T04:20:11.616Z,352
2017-08-09T04:21:10.997Z,376
2017-08-09T04:22:10.981Z,400
2017-08-09T04:23:11.002Z,432
2017-08-09T04:24:11.043Z,468
2017-08-09T04:25:11.654Z,500
2017-08-09T04:26:10.689Z,536
2017-08-09T04:27:10.692Z,568
2017-08-09T04:28:10.692Z,604
2017-08-09T04:29:10.992Z,644
2017-08-09T04:30:11.711Z,692
2017-08-09T04:31:11.048Z,752
2017-08-09T04:32:11.717Z,816
2017-08-09T04:33:11.004Z,872
2017-08-09T04:34:10.700Z,920
2017-08-09T04:35:11.449Z,960
2017-08-09T04:36:11.017Z,1008
2017-08-09T04:37:11.006Z,1032
2017-08-09T04:38:10.715Z,1076
2017-08-09T04:39:10.408Z,1160
2017-08-09T04:40:11.568Z,1164
2017-08-09T04:41:10.716Z,1216
2017-08-09T04:42:11.018Z,1268
2017-08-09T04:43:11.020Z,1364
2017-08-09T04:44:11.035Z,1380
2017-08-09T04:45:11.997Z,1432
2017-08-09T04:46:11.475Z,1452
2017-08-09T04:47:11.025Z,1476
2017-08-09T04:48:10.721Z,1496
2017-08-09T04:49:11.028Z,1508
2017-08-09T04:50:12.164Z,1536
2017-08-09T04:51:11.032Z,1572
2017-08-09T04:52:11.035Z,1608
2017-08-09T04:53:11.029Z,1648
2017-08-09T04:54:10.741Z,1700
2017-08-09T04:55:12.257Z,1768
2017-08-09T04:56:10.740Z,1836
2017-08-09T04:57:11.050Z,1888
2017-08-09T04:58:11.074Z,1944
2017-08-09T04:59:10.738Z,1988
2017-08-09T05:00:11.668Z,2040
2017-08-09T05:01:10.812Z,2080
2017-08-09T05:02:11.057Z,2172
2017-08-09T05:03:11.043Z,2208
2017-08-09T05:04:11.060Z,2280
2017-08-09T05:05:11.597Z,2364
2017-08-09T05:06:10.770Z,2456
2017-08-09T05:07:10.758Z,2560
2017-08-09T05:08:11.062Z,2616
2017-08-09T05:09:11.060Z,2656
2017-08-09T05:10:12.095Z,2688
2017-08-09T05:11:11.063Z,2704
2017-08-09T05:12:10.761Z,2752
2017-08-09T05:13:11.060Z,2784
2017-08-09T05:14:11.077Z,2824
2017-08-09T05:15:11.403Z,2944
2017-08-09T05:16:11.525Z,2936
2017-08-09T05:17:11.087Z,2924
2017-08-09T05:18:10.770Z,2904
2017-08-09T05:19:11.080Z,2876
2017-08-09T05:20:11.909Z,2800
2017-08-09T05:21:11.079Z,2736
2017-08-09T05:22:11.076Z,2716
2017-08-09T05:23:11.082Z,2736
2017-08-09T05:24:10.779Z,2784
2017-08-09T05:25:12.253Z,2828
2017-08-09T05:26:10.790Z,2864
2017-08-09T05:27:11.088Z,2884
2017-08-09T05:28:11.092Z,2904
2017-08-09T05:29:10.794Z,2944
2017-08-09T05:30:12.213Z,3212
2017-08-09T05:31:12.940Z,3112
2017-08-09T05:32:11.102Z,3064
2017-08-09T05:33:11.113Z,3028
2017-08-09T05:34:10.805Z,2960
2017-08-09T05:35:11.888Z,2900
2017-08-09T05:36:10.820Z,2848
2017-08-09T05:37:11.110Z,2816
2017-08-09T05:38:11.128Z,2796
2017-08-09T05:39:11.120Z,2848
2017-08-09T05:40:11.758Z,3020
2017-08-09T05:41:11.127Z,3252
2017-08-09T05:42:11.126Z,3476
2017-08-09T05:43:11.134Z,3664
2017-08-09T05:44:11.137Z,3764
2017-08-09T05:45:11.654Z,3812
2017-08-09T05:46:11.999Z,3852
2017-08-09T05:47:10.546Z,3896
2017-08-09T05:48:10.858Z,3944
2017-08-09T05:49:11.141Z,3968
2017-08-09T05:50:12.184Z,3952
2017-08-09T05:51:10.542Z,3868
2017-08-09T05:52:10.261Z,3768
2017-08-09T05:53:11.161Z,3764
2017-08-09T05:54:11.170Z,3732
2017-08-09T05:55:12.041Z,3692
2017-08-09T05:56:10.866Z,3604
2017-08-09T05:57:11.164Z,3584
2017-08-09T05:58:11.175Z,3688
2017-08-09T05:59:10.578Z,3824
2017-08-09T06:00:12.259Z,3936
2017-08-09T06:01:10.927Z,3980
2017-08-09T06:02:11.205Z,3984
2017-08-09T06:03:11.181Z,3912
2017-08-09T06:04:11.200Z,3908
2017-08-09T06:05:11.849Z,3940
2017-08-09T06:06:11.206Z,3996
2017-08-09T06:07:10.886Z,4096
2017-08-09T06:08:11.205Z,4172
2017-08-09T06:09:10.899Z,4196
2017-08-09T06:10:12.358Z,4204
2017-08-09T06:11:11.209Z,4208
2017-08-09T06:12:10.904Z,4208
2017-08-09T06:13:11.231Z,4216
2017-08-09T06:14:10.925Z,4228
2017-08-09T06:15:12.483Z,4232
2017-08-09T06:16:11.474Z,4252
2017-08-09T06:17:10.917Z,4312
2017-08-09T06:18:11.228Z,4388
2017-08-09T06:19:11.235Z,4484
2017-08-09T06:20:11.611Z,4620
2017-08-09T06:21:11.223Z,4736
2017-08-09T06:22:10.625Z,4868
2017-08-09T06:23:10.952Z,5032
2017-08-09T06:24:10.629Z,5172
2017-08-09T06:25:11.865Z,5276
2017-08-09T06:26:11.267Z,5340
2017-08-09T06:27:11.250Z,5368
2017-08-09T06:28:11.247Z,5416
2017-08-09T06:29:11.267Z,5500
2017-08-09T06:30:12.540Z,5564
2017-08-09T06:31:11.334Z,5564
2017-08-09T06:32:11.271Z,5544
2017-08-09T06:33:10.962Z,5500
2017-08-09T06:34:11.284Z,5592
2017-08-09T06:35:11.525Z,5452
2017-08-09T06:36:11.284Z,5508
2017-08-09T06:37:11.293Z,5604
2017-08-09T06:38:10.986Z,5632
2017-08-09T06:39:11.286Z,5644
2017-08-09T06:40:12.525Z,5688
2017-08-09T06:41:11.327Z,5572
2017-08-09T06:42:11.003Z,5552
2017-08-09T06:43:10.992Z,5520
2017-08-09T06:44:10.995Z,5548
2017-08-09T06:45:12.533Z,5572
2017-08-09T06:46:13.331Z,5600
2017-08-09T06:47:11.313Z,5624
2017-08-09T06:48:11.317Z,5704
2017-08-09T06:49:11.320Z,5836
2017-08-09T06:50:12.048Z,6012
2017-08-09T06:51:11.348Z,6212
2017-08-09T06:52:11.348Z,6444
2017-08-09T06:53:10.733Z,6668
2017-08-09T06:54:11.034Z,6936
2017-08-09T06:55:11.601Z,7004
2017-08-09T06:56:10.741Z,7068
2017-08-09T06:57:10.739Z,7392
2017-08-09T06:58:11.356Z,7432
2017-08-09T06:59:11.048Z,7612
2017-08-09T07:00:12.301Z,7692
2017-08-09T07:01:12.861Z,7768
2017-08-09T07:02:11.069Z,7684
2017-08-09T07:03:11.069Z,8024
2017-08-09T07:04:11.067Z,7764
2017-08-09T07:05:12.318Z,7860
2017-08-09T07:06:10.474Z,7996
2017-08-09T07:07:11.111Z,8260
2017-08-09T07:08:11.083Z,8408
2017-08-09T07:09:11.098Z,8504
2017-08-09T07:10:12.396Z,8536
2017-08-09T07:11:11.419Z,9200
2017-08-09T07:12:11.405Z,8824
2017-08-09T07:13:11.106Z,9452
2017-08-09T07:14:10.811Z,10132
2017-08-09T07:15:12.084Z,9472
2017-08-09T07:16:11.423Z,9208
2017-08-09T07:17:11.128Z,9152
2017-08-09T07:18:11.424Z,9216
2017-08-09T07:19:11.433Z,8788
2017-08-09T07:20:12.120Z,8692
2017-08-09T07:21:11.133Z,8708
2017-08-09T07:22:11.143Z,8776
2017-08-09T07:23:11.140Z,8840
2017-08-09T07:24:11.468Z,8848
2017-08-09T07:25:12.434Z,8992
2017-08-09T07:26:11.474Z,8848
2017-08-09T07:27:10.875Z,8736
2017-08-09T07:28:11.482Z,8688
2017-08-09T07:29:11.176Z,8752
2017-08-09T07:30:12.450Z,8876
2017-08-09T07:31:11.484Z,8992
2017-08-09T07:32:13.843Z,9052
2017-08-09T07:33:11.488Z,9060
2017-08-09T07:34:11.191Z,8876
2017-08-09T07:35:12.760Z,8732
2017-08-09T07:36:11.499Z,8700
2017-08-09T07:37:11.500Z,9400
2017-08-09T07:38:10.903Z,9404
2017-08-09T07:39:11.511Z,9676
2017-08-09T07:40:12.013Z,9584
2017-08-09T07:41:11.518Z,9896
2017-08-09T07:42:11.518Z,9500
2017-08-09T07:43:11.527Z,9364
2017-08-09T07:44:11.526Z,9288
2017-08-09T07:45:12.529Z,9292
2017-08-09T07:46:11.540Z,9260
2017-08-09T07:47:11.941Z,9360
2017-08-09T07:48:11.545Z,9480
2017-08-09T07:49:11.555Z,9652
2017-08-09T07:50:11.998Z,9904
2017-08-09T07:51:11.261Z,9852
2017-08-09T07:52:11.264Z,10140
2017-08-09T07:53:11.268Z,10176
2017-08-09T07:54:11.578Z,10200
2017-08-09T07:55:12.284Z,9976
2017-08-09T07:56:11.580Z,9892
2017-08-09T07:57:11.585Z,9684
2017-08-09T07:58:11.288Z,9728
2017-08-09T07:59:11.589Z,9436
2017-08-09T08:00:12.420Z,9196
2017-08-09T08:01:11.604Z,8912
2017-08-09T08:02:11.657Z,9004
2017-08-09T08:03:11.608Z,9636
2017-08-09T08:04:11.614Z,10180
2017-08-09T08:05:12.606Z,10488
2017-08-09T08:06:11.025Z,10816
2017-08-09T08:07:11.329Z,11116
2017-08-09T08:08:11.328Z,11384
2017-08-09T08:09:11.339Z,11436
2017-08-09T08:10:12.061Z,11480
2017-08-09T08:11:11.647Z,11548
2017-08-09T08:12:11.355Z,11656
2017-08-09T08:13:11.352Z,11000
2017-08-09T08:14:11.078Z,10836
2017-08-09T08:15:12.431Z,10820
2017-08-09T08:16:11.386Z,10968
2017-08-09T08:17:13.179Z,11048
2017-08-09T08:18:11.678Z,11396
2017-08-09T08:19:11.081Z,11724
2017-08-09T08:20:12.346Z,11888
2017-08-09T08:21:11.690Z,11920
2017-08-09T08:22:11.394Z,11884
2017-08-09T08:23:11.707Z,11808
2017-08-09T08:24:11.706Z,11600
2017-08-09T08:25:12.814Z,11300
2017-08-09T08:26:11.411Z,11072
2017-08-09T08:27:11.413Z,10728
2017-08-09T08:28:11.146Z,10584
2017-08-09T08:29:11.733Z,10448
2017-08-09T08:30:13.126Z,10380
2017-08-09T08:31:11.743Z,10252
2017-08-09T08:32:11.811Z,10544
2017-08-09T08:33:11.769Z,10652
2017-08-09T08:34:11.452Z,10676
2017-08-09T08:35:12.271Z,10892
2017-08-09T08:36:11.804Z,11020
2017-08-09T08:37:11.466Z,11848
2017-08-09T08:38:11.787Z,12852
2017-08-09T08:39:11.476Z,13608
2017-08-09T08:40:13.096Z,13404
2017-08-09T08:41:11.503Z,13508
2017-08-09T08:42:11.799Z,14436
2017-08-09T08:43:11.505Z,14032
2017-08-09T08:44:11.805Z,14900
2017-08-09T08:45:12.568Z,15308
2017-08-09T08:46:11.518Z,14596
2017-08-09T08:47:11.862Z,14372
2017-08-09T08:48:11.857Z,14040
2017-08-09T08:49:11.549Z,14344
2017-08-09T08:50:12.844Z,13232
2017-08-09T08:51:11.849Z,13184
2017-08-09T08:52:11.854Z,13232
2017-08-09T08:53:11.854Z,13512
2017-08-09T08:54:11.558Z,14168
2017-08-09T08:55:12.723Z,14068
2017-08-09T08:56:11.872Z,12940
2017-08-09T08:57:11.877Z,13744
2017-08-09T08:58:11.279Z,13928
2017-08-09T08:59:11.895Z,18624
2017-08-09T09:00:13.221Z,14532
2017-08-09T09:01:11.601Z,15064
2017-08-09T09:02:11.616Z,12992
2017-08-09T09:03:13.972Z,12416
2017-08-09T09:04:11.923Z,13836
2017-08-09T09:05:12.745Z,14240
2017-08-09T09:06:11.927Z,16448
2017-08-09T09:07:11.939Z,15508
2017-08-09T09:08:11.946Z,14448
2017-08-09T09:09:11.955Z,16576
2017-08-09T09:10:12.333Z,14892
2017-08-09T09:11:11.961Z,12388
2017-08-09T09:12:11.369Z,13680
2017-08-09T09:13:11.969Z,12624
2017-08-09T09:14:11.728Z,11140
2017-08-09T09:15:12.563Z,11600
2017-08-09T09:16:11.989Z,11188
2017-08-09T09:17:11.701Z,10376
2017-08-09T09:18:14.710Z,10976
2017-08-09T09:19:12.027Z,10940
2017-08-09T09:20:13.054Z,10756
2017-08-09T09:21:11.422Z,10716
2017-08-09T09:22:12.039Z,10628
2017-08-09T09:23:11.737Z,10548
2017-08-09T09:24:12.041Z,10616
2017-08-09T09:25:12.421Z,10596
2017-08-09T09:26:12.060Z,10444
2017-08-09T09:27:12.064Z,10508
2017-08-09T09:28:12.083Z,10492
2017-08-09T09:29:12.069Z,10404
2017-08-09T09:30:12.629Z,10192
2017-08-09T09:31:11.776Z,10448
2017-08-09T09:32:11.789Z,10436
2017-08-09T09:33:12.135Z,10388
2017-08-09T09:34:12.093Z,10384
2017-08-09T09:35:12.589Z,10420
2017-08-09T09:36:11.800Z,10380
2017-08-09T09:37:12.122Z,10360
2017-08-09T09:38:11.823Z,10360
2017-08-09T09:39:11.539Z,10376
2017-08-09T09:40:12.671Z,10248
2017-08-09T09:41:12.139Z,10240
2017-08-09T09:42:12.149Z,10148
2017-08-09T09:43:11.838Z,10148
2017-08-09T09:44:12.161Z,10480
2017-08-09T09:45:12.825Z,10500
2017-08-09T09:46:11.557Z,10772
2017-08-09T09:47:12.163Z,10408
2017-08-09T09:48:14.065Z,10100
2017-08-09T09:49:12.172Z,10088
2017-08-09T09:50:12.836Z,9124
2017-08-09T09:51:12.175Z,8680
2017-08-09T09:52:12.195Z,10424
2017-08-09T09:53:11.582Z,10716
2017-08-09T09:54:11.901Z,10604
2017-08-09T09:55:12.220Z,10276
2017-08-09T09:56:11.900Z,10752
2017-08-09T09:57:11.622Z,11812
2017-08-09T09:58:11.902Z,12292
2017-08-09T09:59:12.208Z,12288
2017-08-09T10:00:12.592Z,12236
2017-08-09T10:01:11.612Z,13496
2017-08-09T10:02:12.225Z,13624
2017-08-09T10:03:11.925Z,13064
2017-08-09T10:04:11.936Z,13696
2017-08-09T10:05:13.305Z,13164
2017-08-09T10:06:12.241Z,11972
2017-08-09T10:07:11.647Z,11792
2017-08-09T10:08:12.259Z,12088
2017-08-09T10:09:11.973Z,12108
2017-08-09T10:10:12.881Z,12680
2017-08-09T10:11:12.274Z,12664
2017-08-09T10:12:12.284Z,12408
2017-08-09T10:13:12.309Z,12428
2017-08-09T10:14:12.286Z,12704
2017-08-09T10:15:13.146Z,12416
2017-08-09T10:16:12.327Z,11560
2017-08-09T10:17:12.310Z,11728
2017-08-09T10:18:12.005Z,12336
2017-08-09T10:19:12.485Z,12932
2017-08-09T10:20:13.713Z,13468
2017-08-09T10:21:12.032Z,13436
2017-08-09T10:22:12.340Z,13536
2017-08-09T10:23:12.052Z,13412
2017-08-09T10:24:12.044Z,13636
2017-08-09T10:25:13.381Z,12476
2017-08-09T10:26:12.059Z,11884
2017-08-09T10:27:12.379Z,11464
2017-08-09T10:28:12.379Z,11376
2017-08-09T10:29:12.079Z,11684
2017-08-09T10:30:13.233Z,12564
2017-08-09T10:31:12.397Z,12032
2017-08-09T10:32:12.388Z,12200
2017-08-09T10:33:12.387Z,12344
2017-08-09T10:34:12.181Z,12712
2017-08-09T10:35:13.193Z,13240
2017-08-09T10:36:12.113Z,13824
2017-08-09T10:37:12.116Z,14124
2017-08-09T10:38:12.116Z,14620
2017-08-09T10:39:12.145Z,15024
2017-08-09T10:40:13.239Z,15872
2017-08-09T10:41:12.465Z,16448
2017-08-09T10:42:11.840Z,16128
2017-08-09T10:43:12.152Z,16864
2017-08-09T10:44:12.186Z,16000
2017-08-09T10:45:12.359Z,14032
2017-08-09T10:46:12.465Z,13452
2017-08-09T10:47:11.861Z,13640
2017-08-09T10:48:12.171Z,14224
2017-08-09T10:49:13.488Z,14140
2017-08-09T10:50:13.148Z,14584
2017-08-09T10:51:12.516Z,14408
2017-08-09T10:52:12.204Z,14304
2017-08-09T10:53:12.205Z,14060
2017-08-09T10:54:12.515Z,14108
2017-08-09T10:55:12.975Z,14132
2017-08-09T10:56:12.222Z,13932
2017-08-09T10:57:12.219Z,13672
2017-08-09T10:58:12.228Z,13744
2017-08-09T10:59:12.529Z,13684
2017-08-09T11:00:13.120Z,13740
2017-08-09T11:01:12.559Z,13592
2017-08-09T11:02:12.242Z,13388
2017-08-09T11:03:12.555Z,13288
2017-08-09T11:04:11.662Z,13052
2017-08-09T11:05:12.998Z,12880
2017-08-09T11:06:12.578Z,12704
2017-08-09T11:07:12.578Z,12456
2017-08-09T11:08:12.583Z,11888
2017-08-09T11:09:12.631Z,11460
2017-08-09T11:10:13.581Z,11304
2017-08-09T11:11:12.297Z,11472
2017-08-09T11:12:12.295Z,11924
2017-08-09T11:13:12.001Z,12344
2017-08-09T11:14:12.640Z,12132
2017-08-09T11:15:13.377Z,11932
2017-08-09T11:16:12.327Z,11828
2017-08-09T11:17:12.618Z,11788
2017-08-09T11:18:12.636Z,11860
2017-08-09T11:19:15.202Z,11840
2017-08-09T11:20:13.194Z,11960
2017-08-09T11:21:12.353Z,12100
2017-08-09T11:22:12.661Z,12124
2017-08-09T11:23:12.686Z,12336
2017-08-09T11:24:12.358Z,12628
2017-08-09T11:25:13.678Z,12944
2017-08-09T11:26:12.368Z,13216
2017-08-09T11:27:12.701Z,12892
2017-08-09T11:28:12.720Z,12592
2017-08-09T11:29:12.441Z,12676
2017-08-09T11:30:13.916Z,12312
2017-08-09T11:31:12.702Z,11980
2017-08-09T11:32:12.405Z,11948
2017-08-09T11:33:12.414Z,12004
2017-08-09T11:34:12.432Z,12460
2017-08-09T11:35:14.216Z,12612
2017-08-09T11:36:12.426Z,12804
2017-08-09T11:37:12.438Z,12168
2017-08-09T11:38:12.463Z,11988
2017-08-09T11:39:12.740Z,11920
2017-08-09T11:40:14.567Z,11708
2017-08-09T11:41:12.464Z,11536
2017-08-09T11:42:12.463Z,11644
2017-08-09T11:43:12.776Z,11744
2017-08-09T11:44:12.513Z,12220
2017-08-09T11:45:13.941Z,12308
2017-08-09T11:46:12.789Z,11908
2017-08-09T11:47:12.499Z,11996
2017-08-09T11:48:12.801Z,12224
2017-08-09T11:49:12.800Z,12324
2017-08-09T11:50:14.184Z,12312
2017-08-09T11:51:12.552Z,12384
2017-08-09T11:52:12.841Z,12344
2017-08-09T11:53:12.222Z,12376
2017-08-09T11:54:12.548Z,12220
2017-08-09T11:55:13.569Z,12052
2017-08-09T11:56:12.849Z,12028
2017-08-09T11:57:12.853Z,11960
2017-08-09T11:58:12.546Z,11572
2017-08-09T11:59:12.859Z,11452
2017-08-09T12:00:13.639Z,11636
2017-08-09T12:01:12.589Z,11572
2017-08-09T12:02:12.272Z,11544
2017-08-09T12:03:12.898Z,11976
2017-08-09T12:04:12.584Z,12280
2017-08-09T12:05:14.246Z,12416
2017-08-09T12:06:12.897Z,12292
2017-08-09T12:07:12.906Z,12380
2017-08-09T12:08:12.939Z,12028
2017-08-09T12:09:12.942Z,11580
2017-08-09T12:10:13.399Z,11592
2017-08-09T12:11:12.639Z,11680
2017-08-09T12:12:12.650Z,12108
2017-08-09T12:13:12.635Z,12160
2017-08-09T12:14:12.942Z,12116
2017-08-09T12:15:13.107Z,12080
2017-08-09T12:16:12.349Z,12012
2017-08-09T12:17:12.673Z,11844
2017-08-09T12:18:12.662Z,11900
2017-08-09T12:19:12.980Z,11820
2017-08-09T12:20:14.482Z,11652
2017-08-09T12:21:13.003Z,11540
2017-08-09T12:22:12.993Z,11364
2017-08-09T12:23:13.001Z,11040
2017-08-09T12:24:12.696Z,10836
2017-08-09T12:25:14.240Z,10664
2017-08-09T12:26:12.720Z,10500
2017-08-09T12:27:12.728Z,10240
2017-08-09T12:28:12.422Z,9908
2017-08-09T12:29:13.020Z,9556
2017-08-09T12:30:14.522Z,9244
2017-08-09T12:31:12.728Z,9160
2017-08-09T12:32:12.731Z,9272
2017-08-09T12:33:13.038Z,9436
2017-08-09T12:34:12.742Z,9396
2017-08-09T12:35:15.730Z,9228
2017-08-09T12:36:12.456Z,8976
2017-08-09T12:37:12.473Z,8768
2017-08-09T12:38:12.783Z,8684
2017-08-09T12:39:12.768Z,8728
2017-08-09T12:40:13.671Z,8936
2017-08-09T12:41:13.094Z,9188
2017-08-09T12:42:12.827Z,9444
2017-08-09T12:43:13.104Z,9516
2017-08-09T12:44:13.102Z,9432
2017-08-09T12:45:13.969Z,9308
2017-08-09T12:46:13.138Z,9264
2017-08-09T12:47:12.811Z,9228
2017-08-09T12:48:12.821Z,9140
2017-08-09T12:49:13.121Z,9100
2017-08-09T12:50:18.802Z,9172
2017-08-09T12:51:12.832Z,9336
2017-08-09T12:52:13.143Z,9484
2017-08-09T12:53:13.147Z,9644
2017-08-09T12:54:12.860Z,9856
2017-08-09T12:55:13.947Z,10152
2017-08-09T12:56:12.858Z,10360
2017-08-09T12:57:12.564Z,10448
2017-08-09T12:58:13.187Z,10500
2017-08-09T12:59:13.173Z,10504
2017-08-09T13:00:14.803Z,10644
2017-08-09T13:01:13.195Z,10724
2017-08-09T13:02:13.224Z,10840
2017-08-09T13:03:13.194Z,10932
2017-08-09T13:04:12.901Z,10984
2017-08-09T13:05:14.023Z,11056
2017-08-09T13:06:12.908Z,11064
2017-08-09T13:07:12.919Z,11092
2017-08-09T13:08:13.227Z,11284
2017-08-09T13:09:13.232Z,11316
2017-08-09T13:10:14.316Z,11524
2017-08-09T13:11:12.939Z,11484
2017-08-09T13:12:12.660Z,11652
2017-08-09T13:13:13.249Z,12616
2017-08-09T13:14:12.950Z,11632
2017-08-09T13:15:14.056Z,11532
2017-08-09T13:16:12.984Z,11428
2017-08-09T13:17:13.013Z,11364
2017-08-09T13:18:13.000Z,11404
2017-08-09T13:19:12.985Z,11264
2017-08-09T13:20:14.243Z,11096
2017-08-09T13:21:15.762Z,10932
2017-08-09T13:22:12.422Z,10756
2017-08-09T13:23:13.319Z,10484
2017-08-09T13:24:12.727Z,10204
2017-08-09T13:25:13.982Z,9980
2017-08-09T13:26:13.315Z,9808
2017-08-09T13:27:13.329Z,9760
2017-08-09T13:28:13.332Z,9780
2017-08-09T13:29:12.785Z,9816
2017-08-09T13:30:14.050Z,9856
2017-08-09T13:31:13.064Z,9884
2017-08-09T13:32:12.751Z,9852
2017-08-09T13:33:13.067Z,9696